sensor_id;sensor_type;location;lat;lon;timestamp;pressure;altitude;pressure_sealevel;temperature;humidity
13422;BME280;6782;55.904;13.396;2022-10-16T00:02:26;62769.09;;;-143.06;100.00
13422;BME280;6782;55.904;13.396;2022-10-16T00:05:13;62769.09;;;-143.06;100.00
13422;BME280;6782;55.904;13.396;2022-10-16T00:08:01;62769.09;;;-143.06;100.00
13422;BME280;6782;55.904;13.396;2022-10-16T00:10:48;62769.09;;;-143.06;100.00
13422;BME280;6782;55.904;13.396;2022-10-16T00:13:37;62769.09;;;-143.06;100.00
13422;BME280;6782;55.904;13.396;2022-10-16T00:16:24;62769.09;;;-143.06;100.00
13422;BME280;6782;55.904;13.396;2022-10-16T00:19:13;62769.09;;;-143.06;100.00
13422;BME280;6782;55.904;13.396;2022-10-16T00:22:00;62769.09;;;-143.06;100.00
13422;BME280;6782;55.904;13.396;2022-10-16T00:24:47;62769.09;;;-143.06;100.00
13422;BME280;6782;55.904;13.396;2022-10-16T00:27:35;62769.09;;;-143.06;100.00
13422;BME280;6782;55.904;13.396;2022-10-16T00:30:22;62769.09;;;-143.06;100.00
13422;BME280;6782;55.904;13.396;2022-10-16T00:33:09;62769.09;;;-143.06;100.00
13422;BME280;6782;55.904;13.396;2022-10-16T00:35:59;62769.09;;;-143.06;100.00
13422;BME280;6782;55.904;13.396;2022-10-16T00:38:49;62769.09;;;-143.06;100.00
13422;BME280;6782;55.904;13.396;2022-10-16T00:41:38;62769.09;;;-143.06;100.00
13422;BME280;6782;55.904;13.396;2022-10-16T00:44:48;62769.09;;;-143.06;100.00
13422;BME280;6782;55.904;13.396;2022-10-16T00:47:40;62769.09;;;-143.06;100.00
13422;BME280;6782;55.904;13.396;2022-10-16T00:50:32;62769.09;;;-143.06;100.00
13422;BME280;6782;55.904;13.396;2022-10-16T00:53:21;62769.09;;;-143.06;100.00
13422;BME280;6782;55.904;13.396;2022-10-16T00:56:09;62769.09;;;-143.06;100.00
13422;BME280;6782;55.904;13.396;2022-10-16T00:58:57;62769.09;;;-143.06;100.00
13422;BME280;6782;55.904;13.396;2022-10-16T01:01:46;62769.09;;;-143.06;100.00
13422;BME280;6782;55.904;13.396;2022-10-16T01:04:35;62769.09;;;-143.06;100.00
13422;BME280;6782;55.904;13.396;2022-10-16T01:07:32;62769.09;;;-143.06;100.00
13422;BME280;6782;55.904;13.396;2022-10-16T01:10:27;62769.09;;;-143.06;100.00
13422;BME280;6782;55.904;13.396;2022-10-16T01:13:21;62769.09;;;-143.06;100.00
13422;BME280;6782;55.904;13.396;2022-10-16T01:16:13;62769.09;;;-143.06;100.00
13422;BME280;6782;55.904;13.396;2022-10-16T01:19:09;62769.09;;;-143.06;100.00
13422;BME280;6782;55.904;13.396;2022-10-16T01:21:59;62769.09;;;-143.06;100.00
13422;BME280;6782;55.904;13.396;2022-10-16T01:24:49;62769.09;;;-143.06;100.00
13422;BME280;6782;55.904;13.396;2022-10-16T01:27:40;62769.09;;;-143.06;100.00
13422;BME280;6782;55.904;13.396;2022-10-16T01:30:32;62769.09;;;-143.06;100.00
13422;BME280;6782;55.904;13.396;2022-10-16T01:33:23;62769.09;;;-143.06;100.00
13422;BME280;6782;55.904;13.396;2022-10-16T01:36:15;62769.09;;;-143.06;100.00
13422;BME280;6782;55.904;13.396;2022-10-16T01:39:06;62769.09;;;-143.06;100.00
13422;BME280;6782;55.904;13.396;2022-10-16T01:42:00;62769.09;;;-143.06;100.00
13422;BME280;6782;55.904;13.396;2022-10-16T01:44:53;62769.09;;;-143.06;100.00
13422;BME280;6782;55.904;13.396;2022-10-16T01:47:43;62769.09;;;-143.06;100.00
13422;BME280;6782;55.904;13.396;2022-10-16T01:50:33;62769.09;;;-143.06;100.00
13422;BME280;6782;55.904;13.396;2022-10-16T01:53:22;62769.09;;;-143.06;100.00
13422;BME280;6782;55.904;13.396;2022-10-16T01:56:13;62769.09;;;-143.06;100.00
13422;BME280;6782;55.904;13.396;2022-10-16T01:59:04;62769.09;;;-143.06;100.00
13422;BME280;6782;55.904;13.396;2022-10-16T02:01:57;62769.09;;;-143.06;100.00
13422;BME280;6782;55.904;13.396;2022-10-16T02:04:49;62769.09;;;-143.06;100.00
13422;BME280;6782;55.904;13.396;2022-10-16T02:07:40;62769.09;;;-143.06;100.00
13422;BME280;6782;55.904;13.396;2022-10-16T02:10:28;62769.09;;;-143.06;100.00
13422;BME280;6782;55.904;13.396;2022-10-16T02:13:19;62769.09;;;-143.06;100.00
13422;BME280;6782;55.904;13.396;2022-10-16T02:16:10;62769.09;;;-143.06;100.00
13422;BME280;6782;55.904;13.396;2022-10-16T02:19:00;62769.09;;;-143.06;100.00
13422;BME280;6782;55.904;13.396;2022-10-16T02:21:50;62769.09;;;-143.06;100.00
13422;BME280;6782;55.904;13.396;2022-10-16T02:24:43;62769.09;;;-143.06;100.00
13422;BME280;6782;55.904;13.396;2022-10-16T02:27:38;62769.09;;;-143.06;100.00
13422;BME280;6782;55.904;13.396;2022-10-16T02:30:30;62769.09;;;-143.06;100.00
13422;BME280;6782;55.904;13.396;2022-10-16T02:33:21;62769.09;;;-143.06;100.00
13422;BME280;6782;55.904;13.396;2022-10-16T02:36:11;62769.09;;;-143.06;100.00
13422;BME280;6782;55.904;13.396;2022-10-16T02:38:59;62769.09;;;-143.06;100.00
13422;BME280;6782;55.904;13.396;2022-10-16T02:41:47;62769.09;;;-143.06;100.00
13422;BME280;6782;55.904;13.396;2022-10-16T02:44:35;62769.09;;;-143.06;100.00
13422;BME280;6782;55.904;13.396;2022-10-16T02:47:22;62769.09;;;-143.06;100.00
13422;BME280;6782;55.904;13.396;2022-10-16T02:50:09;62769.09;;;-143.06;100.00
13422;BME280;6782;55.904;13.396;2022-10-16T02:52:58;82694.00;;;12.29;100.00
13422;BME280;6782;55.904;13.396;2022-10-16T02:55:45;62769.09;;;-143.06;100.00
13422;BME280;6782;55.904;13.396;2022-10-16T02:58:32;62769.09;;;-143.06;100.00
13422;BME280;6782;55.904;13.396;2022-10-16T03:01:20;62769.09;;;-143.06;100.00
13422;BME280;6782;55.904;13.396;2022-10-16T03:04:07;99557.22;;;12.42;100.00
13422;BME280;6782;55.904;13.396;2022-10-16T03:06:54;62769.09;;;-143.06;100.00
13422;BME280;6782;55.904;13.396;2022-10-16T03:09:43;62769.09;;;-143.06;100.00
13422;BME280;6782;55.904;13.396;2022-10-16T03:12:30;62769.09;;;-143.06;100.00
13422;BME280;6782;55.904;13.396;2022-10-16T03:15:17;62769.09;;;-143.06;100.00
13422;BME280;6782;55.904;13.396;2022-10-16T03:18:04;62769.09;;;-143.06;100.00
13422;BME280;6782;55.904;13.396;2022-10-16T03:20:52;62769.09;;;-143.06;100.00
13422;BME280;6782;55.904;13.396;2022-10-16T03:23:39;62769.09;;;-143.06;100.00
13422;BME280;6782;55.904;13.396;2022-10-16T03:26:27;99556.25;;;12.26;100.00
13422;BME280;6782;55.904;13.396;2022-10-16T03:29:15;99563.41;;;12.24;100.00
13422;BME280;6782;55.904;13.396;2022-10-16T03:32:02;99562.84;;;12.17;100.00
13422;BME280;6782;55.904;13.396;2022-10-16T03:34:49;99555.00;;;12.16;100.00
13422;BME280;6782;55.904;13.396;2022-10-16T03:37:38;99549.84;;;12.13;100.00
13422;BME280;6782;55.904;13.396;2022-10-16T03:40:26;99555.13;;;12.13;100.00
13422;BME280;6782;55.904;13.396;2022-10-16T03:43:15;99552.94;;;12.04;100.00
13422;BME280;6782;55.904;13.396;2022-10-16T03:46:02;99551.38;;;12.00;100.00
13422;BME280;6782;55.904;13.396;2022-10-16T03:48:50;99549.72;;;11.97;100.00
13422;BME280;6782;55.904;13.396;2022-10-16T03:51:37;99566.16;;;12.04;100.00
13422;BME280;6782;55.904;13.396;2022-10-16T03:54:24;99567.41;;;11.97;100.00
13422;BME280;6782;55.904;13.396;2022-10-16T03:57:12;99577.16;;;11.94;100.00
13422;BME280;6782;55.904;13.396;2022-10-16T04:00:00;99580.03;;;11.90;100.00
13422;BME280;6782;55.904;13.396;2022-10-16T04:02:47;99588.16;;;11.85;100.00
13422;BME280;6782;55.904;13.396;2022-10-16T04:05:34;99588.31;;;11.82;100.00
13422;BME280;6782;55.904;13.396;2022-10-16T04:08:22;99583.94;;;11.81;100.00
13422;BME280;6782;55.904;13.396;2022-10-16T04:11:09;99591.16;;;11.78;100.00
13422;BME280;6782;55.904;13.396;2022-10-16T04:13:56;99584.28;;;11.74;100.00
13422;BME280;6782;55.904;13.396;2022-10-16T04:16:45;99602.88;;;11.72;100.00
13422;BME280;6782;55.904;13.396;2022-10-16T04:19:32;99604.72;;;11.70;100.00
13422;BME280;6782;55.904;13.396;2022-10-16T04:22:19;99617.25;;;11.65;100.00
13422;BME280;6782;55.904;13.396;2022-10-16T04:25:07;99610.13;;;11.67;100.00
13422;BME280;6782;55.904;13.396;2022-10-16T04:27:55;99612.16;;;11.61;100.00
13422;BME280;6782;55.904;13.396;2022-10-16T04:30:42;99613.47;;;11.52;100.00
13422;BME280;6782;55.904;13.396;2022-10-16T04:33:32;99633.50;;;11.56;100.00
13422;BME280;6782;55.904;13.396;2022-10-16T04:36:19;99641.06;;;11.45;100.00
13422;BME280;6782;55.904;13.396;2022-10-16T04:39:07;99636.13;;;11.56;100.00
13422;BME280;6782;55.904;13.396;2022-10-16T04:41:54;99631.50;;;11.61;100.00
13422;BME280;6782;55.904;13.396;2022-10-16T04:44:41;99642.28;;;11.77;100.00
13422;BME280;6782;55.904;13.396;2022-10-16T04:47:29;99648.53;;;11.74;100.00
13422;BME280;6782;55.904;13.396;2022-10-16T04:50:18;99643.25;;;11.74;100.00
13422;BME280;6782;55.904;13.396;2022-10-16T04:53:06;62769.09;;;-143.06;100.00
13422;BME280;6782;55.904;13.396;2022-10-16T04:55:54;99648.00;;;12.05;100.00
13422;BME280;6782;55.904;13.396;2022-10-16T04:58:42;99652.28;;;12.08;100.00
13422;BME280;6782;55.904;13.396;2022-10-16T05:01:30;99654.69;;;12.12;100.00
13422;BME280;6782;55.904;13.396;2022-10-16T05:04:18;99647.84;;;12.27;100.00
13422;BME280;6782;55.904;13.396;2022-10-16T05:07:07;99653.78;;;12.32;100.00
13422;BME280;6782;55.904;13.396;2022-10-16T05:09:54;99642.69;;;12.24;100.00
13422;BME280;6782;55.904;13.396;2022-10-16T05:12:41;99652.63;;;12.19;100.00
13422;BME280;6782;55.904;13.396;2022-10-16T05:15:29;99648.91;;;12.23;100.00
13422;BME280;6782;55.904;13.396;2022-10-16T05:18:16;99659.13;;;12.30;100.00
13422;BME280;6782;55.904;13.396;2022-10-16T05:21:04;99666.25;;;12.47;100.00
13422;BME280;6782;55.904;13.396;2022-10-16T05:23:54;99673.69;;;12.39;100.00
13422;BME280;6782;55.904;13.396;2022-10-16T05:26:42;99677.19;;;12.39;100.00
13422;BME280;6782;55.904;13.396;2022-10-16T05:29:29;99678.53;;;12.48;100.00
13422;BME280;6782;55.904;13.396;2022-10-16T05:32:18;62769.09;;;-143.06;100.00
13422;BME280;6782;55.904;13.396;2022-10-16T05:35:06;99666.81;;;12.53;100.00
13422;BME280;6782;55.904;13.396;2022-10-16T05:37:54;99680.50;;;12.62;100.00
13422;BME280;6782;55.904;13.396;2022-10-16T05:40:44;99686.66;;;12.62;100.00
13422;BME280;6782;55.904;13.396;2022-10-16T05:43:37;99694.50;;;12.64;100.00
13422;BME280;6782;55.904;13.396;2022-10-16T05:46:24;99697.38;;;12.59;100.00
13422;BME280;6782;55.904;13.396;2022-10-16T05:49:11;99689.09;;;12.67;100.00
13422;BME280;6782;55.904;13.396;2022-10-16T05:51:59;99691.50;;;12.71;100.00
13422;BME280;6782;55.904;13.396;2022-10-16T05:54:46;99694.00;;;12.74;100.00
13422;BME280;6782;55.904;13.396;2022-10-16T05:57:35;99692.31;;;12.73;100.00
13422;BME280;6782;55.904;13.396;2022-10-16T06:00:22;99688.72;;;12.74;100.00
13422;BME280;6782;55.904;13.396;2022-10-16T06:03:09;99701.34;;;12.86;100.00
13422;BME280;6782;55.904;13.396;2022-10-16T06:05:56;99709.22;;;12.88;100.00
13422;BME280;6782;55.904;13.396;2022-10-16T06:08:44;99712.09;;;12.83;100.00
13422;BME280;6782;55.904;13.396;2022-10-16T06:11:32;99713.97;;;12.81;100.00
13422;BME280;6782;55.904;13.396;2022-10-16T06:14:21;99722.53;;;12.86;100.00
13422;BME280;6782;55.904;13.396;2022-10-16T06:17:08;62769.09;;;-143.06;100.00
13422;BME280;6782;55.904;13.396;2022-10-16T06:19:55;62769.09;;;-143.06;100.00
13422;BME280;6782;55.904;13.396;2022-10-16T06:22:44;62769.09;;;-143.06;100.00
13422;BME280;6782;55.904;13.396;2022-10-16T06:25:31;62769.09;;;-143.06;100.00
13422;BME280;6782;55.904;13.396;2022-10-16T06:28:18;99726.72;;;13.09;100.00
13422;BME280;6782;55.904;13.396;2022-10-16T06:31:09;99737.94;;;13.14;100.00
13422;BME280;6782;55.904;13.396;2022-10-16T06:33:57;99744.09;;;13.14;100.00
13422;BME280;6782;55.904;13.396;2022-10-16T06:36:44;99746.03;;;13.28;100.00
13422;BME280;6782;55.904;13.396;2022-10-16T06:39:31;99749.19;;;13.17;100.00
13422;BME280;6782;55.904;13.396;2022-10-16T06:42:19;99750.94;;;13.18;100.00
13422;BME280;6782;55.904;13.396;2022-10-16T06:45:07;99759.66;;;13.21;100.00
13422;BME280;6782;55.904;13.396;2022-10-16T06:47:55;99754.50;;;13.17;100.00
13422;BME280;6782;55.904;13.396;2022-10-16T06:50:43;99754.50;;;13.17;100.00
13422;BME280;6782;55.904;13.396;2022-10-16T06:53:31;99757.09;;;13.19;100.00
13422;BME280;6782;55.904;13.396;2022-10-16T06:56:21;99764.16;;;13.18;100.00
13422;BME280;6782;55.904;13.396;2022-10-16T06:59:08;99757.94;;;13.20;100.00
13422;BME280;6782;55.904;13.396;2022-10-16T07:01:55;99762.22;;;13.22;100.00
13422;BME280;6782;55.904;13.396;2022-10-16T07:04:44;99758.63;;;13.23;100.00
13422;BME280;6782;55.904;13.396;2022-10-16T07:07:31;99766.34;;;13.28;100.00
13422;BME280;6782;55.904;13.396;2022-10-16T07:10:18;99771.81;;;13.25;100.00
13422;BME280;6782;55.904;13.396;2022-10-16T07:13:09;99775.91;;;13.30;100.00
13422;BME280;6782;55.904;13.396;2022-10-16T07:16:04;99771.50;;;13.31;100.00
13422;BME280;6782;55.904;13.396;2022-10-16T07:18:51;99780.38;;;13.30;100.00
13422;BME280;6782;55.904;13.396;2022-10-16T07:21:44;99783.50;;;13.38;100.00
13422;BME280;6782;55.904;13.396;2022-10-16T07:24:32;99775.38;;;13.41;100.00
13422;BME280;6782;55.904;13.396;2022-10-16T07:27:19;62769.09;;;-143.06;100.00
13422;BME280;6782;55.904;13.396;2022-10-16T07:30:08;62769.09;;;-143.06;100.00
13422;BME280;6782;55.904;13.396;2022-10-16T07:32:57;62769.09;;;-143.06;100.00
13422;BME280;6782;55.904;13.396;2022-10-16T07:35:50;62769.09;;;-143.06;100.00
13422;BME280;6782;55.904;13.396;2022-10-16T07:38:39;62769.09;;;-143.06;100.00
13422;BME280;6782;55.904;13.396;2022-10-16T07:41:27;62769.09;;;-143.06;100.00
13422;BME280;6782;55.904;13.396;2022-10-16T07:44:15;62769.09;;;-143.06;100.00
13422;BME280;6782;55.904;13.396;2022-10-16T07:47:03;62769.09;;;-143.06;100.00
13422;BME280;6782;55.904;13.396;2022-10-16T07:49:50;62769.09;;;-143.06;100.00
13422;BME280;6782;55.904;13.396;2022-10-16T07:52:37;62769.09;;;-143.06;100.00
13422;BME280;6782;55.904;13.396;2022-10-16T07:55:26;62769.09;;;-143.06;100.00
13422;BME280;6782;55.904;13.396;2022-10-16T07:58:13;62769.09;;;-143.06;100.00
13422;BME280;6782;55.904;13.396;2022-10-16T08:01:03;62769.09;;;-143.06;100.00
13422;BME280;6782;55.904;13.396;2022-10-16T08:03:51;62769.09;;;-143.06;100.00
13422;BME280;6782;55.904;13.396;2022-10-16T08:06:39;62769.09;;;-143.06;100.00
13422;BME280;6782;55.904;13.396;2022-10-16T08:09:27;62769.09;;;-143.06;100.00
13422;BME280;6782;55.904;13.396;2022-10-16T08:12:15;62769.09;;;-143.06;100.00
13422;BME280;6782;55.904;13.396;2022-10-16T08:15:04;62769.09;;;-143.06;100.00
13422;BME280;6782;55.904;13.396;2022-10-16T08:17:59;62769.09;;;-143.06;100.00
13422;BME280;6782;55.904;13.396;2022-10-16T08:20:46;62769.09;;;-143.06;100.00
13422;BME280;6782;55.904;13.396;2022-10-16T08:23:33;62769.09;;;-143.06;100.00
13422;BME280;6782;55.904;13.396;2022-10-16T08:26:21;62769.09;;;-143.06;100.00
13422;BME280;6782;55.904;13.396;2022-10-16T08:29:10;62769.09;;;-143.06;100.00
13422;BME280;6782;55.904;13.396;2022-10-16T08:31:57;62769.09;;;-143.06;100.00
13422;BME280;6782;55.904;13.396;2022-10-16T08:34:44;62769.09;;;-143.06;100.00
13422;BME280;6782;55.904;13.396;2022-10-16T08:37:31;62769.09;;;-143.06;100.00
13422;BME280;6782;55.904;13.396;2022-10-16T08:40:23;62769.09;;;-143.06;100.00
13422;BME280;6782;55.904;13.396;2022-10-16T08:43:35;62769.09;;;-143.06;100.00
13422;BME280;6782;55.904;13.396;2022-10-16T08:46:40;62769.09;;;-143.06;100.00
13422;BME280;6782;55.904;13.396;2022-10-16T08:49:32;62769.09;;;-143.06;100.00
13422;BME280;6782;55.904;13.396;2022-10-16T08:52:19;62769.09;;;-143.06;100.00
13422;BME280;6782;55.904;13.396;2022-10-16T08:55:19;62769.09;;;-143.06;100.00
13422;BME280;6782;55.904;13.396;2022-10-16T08:58:14;62769.09;;;-143.06;100.00
13422;BME280;6782;55.904;13.396;2022-10-16T09:01:04;62769.09;;;-143.06;100.00
13422;BME280;6782;55.904;13.396;2022-10-16T09:04:20;62769.09;;;-143.06;100.00
13422;BME280;6782;55.904;13.396;2022-10-16T09:07:15;62769.09;;;-143.06;100.00
13422;BME280;6782;55.904;13.396;2022-10-16T09:10:19;62769.09;;;-143.06;100.00
13422;BME280;6782;55.904;13.396;2022-10-16T09:13:17;62769.09;;;-143.06;100.00
13422;BME280;6782;55.904;13.396;2022-10-16T09:16:15;62769.09;;;-143.06;100.00
13422;BME280;6782;55.904;13.396;2022-10-16T09:19:15;62769.09;;;-143.06;100.00
13422;BME280;6782;55.904;13.396;2022-10-16T09:22:12;62769.09;;;-143.06;100.00
13422;BME280;6782;55.904;13.396;2022-10-16T09:25:10;62769.09;;;-143.06;100.00
13422;BME280;6782;55.904;13.396;2022-10-16T09:27:58;62769.09;;;-143.06;100.00
13422;BME280;6782;55.904;13.396;2022-10-16T09:30:48;62769.09;;;-143.06;100.00
13422;BME280;6782;55.904;13.396;2022-10-16T09:33:37;62769.09;;;-143.06;100.00
13422;BME280;6782;55.904;13.396;2022-10-16T09:36:29;62769.09;;;-143.06;100.00
13422;BME280;6782;55.904;13.396;2022-10-16T09:39:20;62769.09;;;-143.06;100.00
13422;BME280;6782;55.904;13.396;2022-10-16T09:42:09;62769.09;;;-143.06;100.00
13422;BME280;6782;55.904;13.396;2022-10-16T09:44:57;62769.09;;;-143.06;100.00
13422;BME280;6782;55.904;13.396;2022-10-16T09:47:45;62769.09;;;-143.06;100.00
13422;BME280;6782;55.904;13.396;2022-10-16T09:50:33;62769.09;;;-143.06;100.00
13422;BME280;6782;55.904;13.396;2022-10-16T09:53:23;62769.09;;;-143.06;100.00
13422;BME280;6782;55.904;13.396;2022-10-16T09:56:12;62769.09;;;-143.06;100.00
13422;BME280;6782;55.904;13.396;2022-10-16T09:59:11;62769.09;;;-143.06;100.00
13422;BME280;6782;55.904;13.396;2022-10-16T10:02:02;62769.09;;;-143.06;100.00
13422;BME280;6782;55.904;13.396;2022-10-16T10:04:52;62769.09;;;-143.06;100.00
13422;BME280;6782;55.904;13.396;2022-10-16T10:07:43;62769.09;;;-143.06;100.00
13422;BME280;6782;55.904;13.396;2022-10-16T10:10:38;62769.09;;;-143.06;100.00
13422;BME280;6782;55.904;13.396;2022-10-16T10:13:28;62769.09;;;-143.06;100.00
13422;BME280;6782;55.904;13.396;2022-10-16T10:16:23;62769.09;;;-143.06;100.00
13422;BME280;6782;55.904;13.396;2022-10-16T10:19:14;62769.09;;;-143.06;100.00
13422;BME280;6782;55.904;13.396;2022-10-16T10:22:15;62769.09;;;-143.06;100.00
13422;BME280;6782;55.904;13.396;2022-10-16T10:25:18;62769.09;;;-143.06;100.00
13422;BME280;6782;55.904;13.396;2022-10-16T10:28:18;62769.09;;;-143.06;100.00
13422;BME280;6782;55.904;13.396;2022-10-16T10:31:12;62769.09;;;-143.06;100.00
13422;BME280;6782;55.904;13.396;2022-10-16T10:34:24;62769.09;;;-143.06;100.00
13422;BME280;6782;55.904;13.396;2022-10-16T10:37:26;62769.09;;;-143.06;100.00
13422;BME280;6782;55.904;13.396;2022-10-16T10:40:28;62769.09;;;-143.06;100.00
13422;BME280;6782;55.904;13.396;2022-10-16T10:43:29;62769.09;;;-143.06;100.00
13422;BME280;6782;55.904;13.396;2022-10-16T10:46:28;62769.09;;;-143.06;100.00
13422;BME280;6782;55.904;13.396;2022-10-16T10:49:34;62769.09;;;-143.06;100.00
13422;BME280;6782;55.904;13.396;2022-10-16T10:52:41;62769.09;;;-143.06;100.00
13422;BME280;6782;55.904;13.396;2022-10-16T10:55:38;62769.09;;;-143.06;100.00
13422;BME280;6782;55.904;13.396;2022-10-16T10:58:42;62769.09;;;-143.06;100.00
13422;BME280;6782;55.904;13.396;2022-10-16T11:01:41;62769.09;;;-143.06;100.00
13422;BME280;6782;55.904;13.396;2022-10-16T11:04:55;62769.09;;;-143.06;100.00
13422;BME280;6782;55.904;13.396;2022-10-16T11:07:48;62769.09;;;-143.06;100.00
13422;BME280;6782;55.904;13.396;2022-10-16T11:10:42;62769.09;;;-143.06;100.00
13422;BME280;6782;55.904;13.396;2022-10-16T11:13:36;62769.09;;;-143.06;100.00
13422;BME280;6782;55.904;13.396;2022-10-16T11:16:29;62769.09;;;-143.06;100.00
13422;BME280;6782;55.904;13.396;2022-10-16T11:19:25;62769.09;;;-143.06;100.00
13422;BME280;6782;55.904;13.396;2022-10-16T11:22:19;62769.09;;;-143.06;100.00
13422;BME280;6782;55.904;13.396;2022-10-16T11:25:13;62769.09;;;-143.06;100.00
13422;BME280;6782;55.904;13.396;2022-10-16T11:28:08;62769.09;;;-143.06;100.00
13422;BME280;6782;55.904;13.396;2022-10-16T11:31:02;62769.09;;;-143.06;100.00
13422;BME280;6782;55.904;13.396;2022-10-16T11:33:59;62769.09;;;-143.06;100.00
13422;BME280;6782;55.904;13.396;2022-10-16T11:36:51;62769.09;;;-143.06;100.00
13422;BME280;6782;55.904;13.396;2022-10-16T11:39:42;62769.09;;;-143.06;100.00
13422;BME280;6782;55.904;13.396;2022-10-16T11:42:36;62769.09;;;-143.06;100.00
13422;BME280;6782;55.904;13.396;2022-10-16T11:45:30;62769.09;;;-143.06;100.00
13422;BME280;6782;55.904;13.396;2022-10-16T11:48:27;62769.09;;;-143.06;100.00
13422;BME280;6782;55.904;13.396;2022-10-16T11:51:22;62769.09;;;-143.06;100.00
13422;BME280;6782;55.904;13.396;2022-10-16T11:54:18;62769.09;;;-143.06;100.00
13422;BME280;6782;55.904;13.396;2022-10-16T11:57:12;62769.09;;;-143.06;100.00
13422;BME280;6782;55.904;13.396;2022-10-16T12:00:06;62769.09;;;-143.06;100.00
13422;BME280;6782;55.904;13.396;2022-10-16T12:03:00;62769.09;;;-143.06;100.00
13422;BME280;6782;55.904;13.396;2022-10-16T12:06:06;62769.09;;;-143.06;100.00
13422;BME280;6782;55.904;13.396;2022-10-16T12:08:59;62769.09;;;-143.06;100.00
13422;BME280;6782;55.904;13.396;2022-10-16T12:11:47;62769.09;;;-143.06;100.00
13422;BME280;6782;55.904;13.396;2022-10-16T12:14:37;62769.09;;;-143.06;100.00
13422;BME280;6782;55.904;13.396;2022-10-16T12:17:27;62769.09;;;-143.06;100.00
13422;BME280;6782;55.904;13.396;2022-10-16T12:20:27;62769.09;;;-143.06;100.00
13422;BME280;6782;55.904;13.396;2022-10-16T12:23:20;62769.09;;;-143.06;100.00
13422;BME280;6782;55.904;13.396;2022-10-16T12:26:10;62769.09;;;-143.06;100.00
13422;BME280;6782;55.904;13.396;2022-10-16T12:29:12;62769.09;;;-143.06;100.00
13422;BME280;6782;55.904;13.396;2022-10-16T12:32:01;62769.09;;;-143.06;100.00
13422;BME280;6782;55.904;13.396;2022-10-16T12:34:49;62769.09;;;-143.06;100.00
13422;BME280;6782;55.904;13.396;2022-10-16T12:37:37;62769.09;;;-143.06;100.00
13422;BME280;6782;55.904;13.396;2022-10-16T12:40:29;62769.09;;;-143.06;100.00
13422;BME280;6782;55.904;13.396;2022-10-16T12:43:35;62769.09;;;-143.06;100.00
13422;BME280;6782;55.904;13.396;2022-10-16T12:46:37;62769.09;;;-143.06;100.00
13422;BME280;6782;55.904;13.396;2022-10-16T12:49:36;62769.09;;;-143.06;100.00
13422;BME280;6782;55.904;13.396;2022-10-16T12:52:28;62769.09;;;-143.06;100.00
13422;BME280;6782;55.904;13.396;2022-10-16T12:55:17;62769.09;;;-143.06;100.00
13422;BME280;6782;55.904;13.396;2022-10-16T12:58:28;62769.09;;;-143.06;100.00
13422;BME280;6782;55.904;13.396;2022-10-16T13:01:29;62769.09;;;-143.06;100.00
13422;BME280;6782;55.904;13.396;2022-10-16T13:04:30;62769.09;;;-143.06;100.00
13422;BME280;6782;55.904;13.396;2022-10-16T13:07:34;62769.09;;;-143.06;100.00
13422;BME280;6782;55.904;13.396;2022-10-16T13:10:34;62769.09;;;-143.06;100.00
13422;BME280;6782;55.904;13.396;2022-10-16T13:16:50;62769.09;;;-143.06;100.00
13422;BME280;6782;55.904;13.396;2022-10-16T13:19:45;62769.09;;;-143.06;100.00
13422;BME280;6782;55.904;13.396;2022-10-16T13:22:39;62769.09;;;-143.06;100.00
13422;BME280;6782;55.904;13.396;2022-10-16T13:25:38;62769.09;;;-143.06;100.00
13422;BME280;6782;55.904;13.396;2022-10-16T13:28:31;62769.09;;;-143.06;100.00
13422;BME280;6782;55.904;13.396;2022-10-16T13:31:21;62769.09;;;-143.06;100.00
13422;BME280;6782;55.904;13.396;2022-10-16T13:34:16;62769.09;;;-143.06;100.00
13422;BME280;6782;55.904;13.396;2022-10-16T13:37:16;62769.09;;;-143.06;100.00
13422;BME280;6782;55.904;13.396;2022-10-16T13:40:18;62769.09;;;-143.06;100.00
13422;BME280;6782;55.904;13.396;2022-10-16T13:43:08;62769.09;;;-143.06;100.00
13422;BME280;6782;55.904;13.396;2022-10-16T13:45:58;62769.09;;;-143.06;100.00
13422;BME280;6782;55.904;13.396;2022-10-16T13:48:56;62769.09;;;-143.06;100.00
13422;BME280;6782;55.904;13.396;2022-10-16T13:51:55;62769.09;;;-143.06;100.00
13422;BME280;6782;55.904;13.396;2022-10-16T13:54:43;62769.09;;;-143.06;100.00
13422;BME280;6782;55.904;13.396;2022-10-16T13:57:30;62769.09;;;-143.06;100.00
13422;BME280;6782;55.904;13.396;2022-10-16T14:00:19;62769.09;;;-143.06;100.00
13422;BME280;6782;55.904;13.396;2022-10-16T14:03:12;62769.09;;;-143.06;100.00
13422;BME280;6782;55.904;13.396;2022-10-16T14:06:01;62769.09;;;-143.06;100.00
13422;BME280;6782;55.904;13.396;2022-10-16T14:08:59;62769.09;;;-143.06;100.00
13422;BME280;6782;55.904;13.396;2022-10-16T14:11:49;62769.09;;;-143.06;100.00
13422;BME280;6782;55.904;13.396;2022-10-16T14:14:41;62769.09;;;-143.06;100.00
13422;BME280;6782;55.904;13.396;2022-10-16T14:17:30;62769.09;;;-143.06;100.00
13422;BME280;6782;55.904;13.396;2022-10-16T14:20:18;62769.09;;;-143.06;100.00
13422;BME280;6782;55.904;13.396;2022-10-16T14:23:20;62769.09;;;-143.06;100.00
13422;BME280;6782;55.904;13.396;2022-10-16T14:26:27;62769.09;;;-143.06;100.00
13422;BME280;6782;55.904;13.396;2022-10-16T14:29:18;62769.09;;;-143.06;100.00
13422;BME280;6782;55.904;13.396;2022-10-16T14:32:22;62769.09;;;-143.06;100.00
13422;BME280;6782;55.904;13.396;2022-10-16T14:35:23;62769.09;;;-143.06;100.00
13422;BME280;6782;55.904;13.396;2022-10-16T14:38:19;62769.09;;;-143.06;100.00
13422;BME280;6782;55.904;13.396;2022-10-16T14:41:08;62769.09;;;-143.06;100.00
13422;BME280;6782;55.904;13.396;2022-10-16T14:44:03;62769.09;;;-143.06;100.00